sensor_id;sensor_type;location;lat;lon;timestamp;P1;durP1;ratioP1;P2;durP2;ratioP2
25479;SDS011;13393;49.378;8.686;2023-11-21T00:00:45;6.25;;;2.75;;
25479;SDS011;13393;49.378;8.686;2023-11-21T00:03:12;5.95;;;2.10;;
25479;SDS011;13393;49.378;8.686;2023-11-21T00:05:40;5.38;;;2.25;;
25479;SDS011;13393;49.378;8.686;2023-11-21T00:08:07;5.72;;;2.45;;
25479;SDS011;13393;49.378;8.686;2023-11-21T00:10:35;8.52;;;2.40;;
25479;SDS011;13393;49.378;8.686;2023-11-21T00:13:03;6.68;;;1.88;;
25479;SDS011;13393;49.378;8.686;2023-11-21T00:15:29;9.00;;;2.25;;
25479;SDS011;13393;49.378;8.686;2023-11-21T00:17:56;5.20;;;1.83;;
25479;SDS011;13393;49.378;8.686;2023-11-21T00:20:22;7.45;;;1.90;;
25479;SDS011;13393;49.378;8.686;2023-11-21T00:22:49;6.20;;;2.13;;
25479;SDS011;13393;49.378;8.686;2023-11-21T00:25:15;7.28;;;2.20;;
25479;SDS011;13393;49.378;8.686;2023-11-21T00:27:44;8.15;;;2.05;;
25479;SDS011;13393;49.378;8.686;2023-11-21T00:30:11;10.10;;;2.42;;
25479;SDS011;13393;49.378;8.686;2023-11-21T00:32:37;8.70;;;2.03;;
25479;SDS011;13393;49.378;8.686;2023-11-21T00:35:04;5.82;;;1.80;;
25479;SDS011;13393;49.378;8.686;2023-11-21T00:37:31;7.70;;;2.22;;
25479;SDS011;13393;49.378;8.686;2023-11-21T00:39:58;8.35;;;2.15;;
25479;SDS011;13393;49.378;8.686;2023-11-21T00:42:24;6.88;;;2.45;;
25479;SDS011;13393;49.378;8.686;2023-11-21T00:44:53;8.05;;;2.20;;
25479;SDS011;13393;49.378;8.686;2023-11-21T00:47:19;6.55;;;1.92;;
25479;SDS011;13393;49.378;8.686;2023-11-21T00:49:46;11.13;;;2.47;;
25479;SDS011;13393;49.378;8.686;2023-11-21T00:52:13;5.85;;;1.73;;
25479;SDS011;13393;49.378;8.686;2023-11-21T00:54:39;8.32;;;2.17;;
25479;SDS011;13393;49.378;8.686;2023-11-21T00:57:05;6.85;;;1.75;;
25479;SDS011;13393;49.378;8.686;2023-11-21T00:59:33;5.72;;;1.83;;
25479;SDS011;13393;49.378;8.686;2023-11-21T01:02:01;7.57;;;1.83;;
25479;SDS011;13393;49.378;8.686;2023-11-21T01:04:30;4.55;;;1.80;;
25479;SDS011;13393;49.378;8.686;2023-11-21T01:06:56;4.85;;;2.13;;
25479;SDS011;13393;49.378;8.686;2023-11-21T01:09:23;7.82;;;2.28;;
25479;SDS011;13393;49.378;8.686;2023-11-21T01:11:49;6.50;;;2.03;;
25479;SDS011;13393;49.378;8.686;2023-11-21T01:14:17;7.03;;;2.00;;
25479;SDS011;13393;49.378;8.686;2023-11-21T01:16:44;6.22;;;2.33;;
25479;SDS011;13393;49.378;8.686;2023-11-21T01:19:12;7.78;;;2.20;;
25479;SDS011;13393;49.378;8.686;2023-11-21T01:21:38;6.10;;;2.70;;
25479;SDS011;13393;49.378;8.686;2023-11-21T01:24:05;8.38;;;2.00;;
25479;SDS011;13393;49.378;8.686;2023-11-21T01:26:32;5.25;;;1.95;;
25479;SDS011;13393;49.378;8.686;2023-11-21T01:28:58;6.53;;;2.15;;
25479;SDS011;13393;49.378;8.686;2023-11-21T01:31:25;7.00;;;2.58;;
25479;SDS011;13393;49.378;8.686;2023-11-21T01:33:54;8.13;;;2.40;;
25479;SDS011;13393;49.378;8.686;2023-11-21T01:36:22;4.35;;;1.80;;
25479;SDS011;13393;49.378;8.686;2023-11-21T01:38:49;5.57;;;2.25;;
25479;SDS011;13393;49.378;8.686;2023-11-21T01:41:15;4.25;;;2.15;;
25479;SDS011;13393;49.378;8.686;2023-11-21T01:43:42;7.60;;;1.95;;
25479;SDS011;13393;49.378;8.686;2023-11-21T01:46:08;6.50;;;2.35;;
25479;SDS011;13393;49.378;8.686;2023-11-21T01:48:35;5.50;;;2.30;;
25479;SDS011;13393;49.378;8.686;2023-11-21T01:51:02;5.35;;;2.05;;
25479;SDS011;13393;49.378;8.686;2023-11-21T01:53:31;6.57;;;2.60;;
25479;SDS011;13393;49.378;8.686;2023-11-21T01:55:58;7.78;;;2.58;;
25479;SDS011;13393;49.378;8.686;2023-11-21T01:58:25;3.97;;;1.90;;
25479;SDS011;13393;49.378;8.686;2023-11-21T02:00:51;6.25;;;2.17;;
25479;SDS011;13393;49.378;8.686;2023-11-21T02:03:20;5.70;;;2.03;;
25479;SDS011;13393;49.378;8.686;2023-11-21T02:05:46;6.35;;;1.60;;
25479;SDS011;13393;49.378;8.686;2023-11-21T02:08:12;7.10;;;2.28;;
25479;SDS011;13393;49.378;8.686;2023-11-21T02:10:41;6.20;;;2.00;;
25479;SDS011;13393;49.378;8.686;2023-11-21T02:13:07;8.93;;;2.33;;
25479;SDS011;13393;49.378;8.686;2023-11-21T02:15:36;7.70;;;2.30;;
25479;SDS011;13393;49.378;8.686;2023-11-21T02:18:03;5.85;;;2.00;;
25479;SDS011;13393;49.378;8.686;2023-11-21T02:20:31;6.18;;;1.88;;
25479;SDS011;13393;49.378;8.686;2023-11-21T02:23:01;6.43;;;2.03;;
25479;SDS011;13393;49.378;8.686;2023-11-21T02:25:28;3.10;;;1.80;;
25479;SDS011;13393;49.378;8.686;2023-11-21T02:27:55;4.57;;;2.03;;
25479;SDS011;13393;49.378;8.686;2023-11-21T02:30:22;5.97;;;1.65;;
25479;SDS011;13393;49.378;8.686;2023-11-21T02:32:50;5.43;;;1.90;;
25479;SDS011;13393;49.378;8.686;2023-11-21T02:35:18;6.90;;;2.40;;
25479;SDS011;13393;49.378;8.686;2023-11-21T02:37:46;5.55;;;3.00;;
25479;SDS011;13393;49.378;8.686;2023-11-21T02:40:14;10.05;;;2.08;;
25479;SDS011;13393;49.378;8.686;2023-11-21T02:42:42;8.45;;;2.47;;
25479;SDS011;13393;49.378;8.686;2023-11-21T02:45:09;3.85;;;1.45;;
25479;SDS011;13393;49.378;8.686;2023-11-21T02:47:37;5.88;;;2.00;;
25479;SDS011;13393;49.378;8.686;2023-11-21T02:50:04;6.20;;;1.98;;
25479;SDS011;13393;49.378;8.686;2023-11-21T02:52:31;8.07;;;2.05;;
25479;SDS011;13393;49.378;8.686;2023-11-21T02:54:58;5.43;;;1.80;;
25479;SDS011;13393;49.378;8.686;2023-11-21T02:57:26;6.68;;;1.90;;
25479;SDS011;13393;49.378;8.686;2023-11-21T02:59:52;7.65;;;1.63;;
25479;SDS011;13393;49.378;8.686;2023-11-21T03:02:19;4.75;;;1.67;;
25479;SDS011;13393;49.378;8.686;2023-11-21T03:04:46;7.03;;;1.70;;
25479;SDS011;13393;49.378;8.686;2023-11-21T03:07:13;4.40;;;1.58;;
25479;SDS011;13393;49.378;8.686;2023-11-21T03:09:39;3.80;;;1.77;;
25479;SDS011;13393;49.378;8.686;2023-11-21T03:12:05;5.00;;;1.65;;
25479;SDS011;13393;49.378;8.686;2023-11-21T03:14:33;4.70;;;1.75;;
25479;SDS011;13393;49.378;8.686;2023-11-21T03:17:00;6.07;;;1.83;;
25479;SDS011;13393;49.378;8.686;2023-11-21T03:19:27;6.85;;;1.90;;
25479;SDS011;13393;49.378;8.686;2023-11-21T03:21:54;7.13;;;1.98;;
25479;SDS011;13393;49.378;8.686;2023-11-21T03:24:20;5.10;;;1.50;;
25479;SDS011;13393;49.378;8.686;2023-11-21T03:26:47;4.57;;;2.08;;
25479;SDS011;13393;49.378;8.686;2023-11-21T03:29:14;5.20;;;2.03;;
25479;SDS011;13393;49.378;8.686;2023-11-21T03:31:42;3.80;;;1.60;;
25479;SDS011;13393;49.378;8.686;2023-11-21T03:34:10;6.10;;;1.70;;
25479;SDS011;13393;49.378;8.686;2023-11-21T03:36:36;2.92;;;1.48;;
25479;SDS011;13393;49.378;8.686;2023-11-21T03:39:03;6.82;;;1.73;;
25479;SDS011;13393;49.378;8.686;2023-11-21T03:41:30;3.20;;;1.30;;
25479;SDS011;13393;49.378;8.686;2023-11-21T03:43:56;2.75;;;1.30;;
25479;SDS011;13393;49.378;8.686;2023-11-21T03:46:23;3.72;;;1.40;;
25479;SDS011;13393;49.378;8.686;2023-11-21T03:48:51;5.28;;;1.73;;
25479;SDS011;13393;49.378;8.686;2023-11-21T03:51:17;4.43;;;1.67;;
25479;SDS011;13393;49.378;8.686;2023-11-21T03:53:44;3.60;;;1.52;;
25479;SDS011;13393;49.378;8.686;2023-11-21T03:56:10;2.70;;;1.40;;
25479;SDS011;13393;49.378;8.686;2023-11-21T03:58:36;3.10;;;1.30;;
25479;SDS011;13393;49.378;8.686;2023-11-21T04:01:05;5.57;;;1.50;;
25479;SDS011;13393;49.378;8.686;2023-11-21T04:03:32;6.10;;;1.58;;
25479;SDS011;13393;49.378;8.686;2023-11-21T04:05:59;2.70;;;1.60;;
25479;SDS011;13393;49.378;8.686;2023-11-21T04:08:26;3.20;;;1.70;;
25479;SDS011;13393;49.378;8.686;2023-11-21T04:10:52;4.40;;;1.88;;
25479;SDS011;13393;49.378;8.686;2023-11-21T04:13:20;4.60;;;1.40;;
25479;SDS011;13393;49.378;8.686;2023-11-21T04:15:47;5.72;;;2.28;;
25479;SDS011;13393;49.378;8.686;2023-11-21T04:18:13;5.63;;;1.77;;
25479;SDS011;13393;49.378;8.686;2023-11-21T04:20:39;5.50;;;1.83;;
25479;SDS011;13393;49.378;8.686;2023-11-21T04:23:07;2.03;;;1.60;;
25479;SDS011;13393;49.378;8.686;2023-11-21T04:25:35;4.40;;;1.52;;
25479;SDS011;13393;49.378;8.686;2023-11-21T04:28:01;3.85;;;1.38;;
25479;SDS011;13393;49.378;8.686;2023-11-21T04:30:29;2.33;;;1.38;;
25479;SDS011;13393;49.378;8.686;2023-11-21T04:32:57;4.60;;;1.52;;
25479;SDS011;13393;49.378;8.686;2023-11-21T04:35:25;5.80;;;1.50;;
25479;SDS011;13393;49.378;8.686;2023-11-21T04:37:51;2.83;;;1.40;;
25479;SDS011;13393;49.378;8.686;2023-11-21T04:40:19;5.03;;;1.58;;
25479;SDS011;13393;49.378;8.686;2023-11-21T04:42:46;4.72;;;2.20;;
25479;SDS011;13393;49.378;8.686;2023-11-21T04:45:12;6.28;;;1.83;;
25479;SDS011;13393;49.378;8.686;2023-11-21T04:47:39;3.08;;;2.20;;
25479;SDS011;13393;49.378;8.686;2023-11-21T04:50:05;2.47;;;1.70;;
25479;SDS011;13393;49.378;8.686;2023-11-21T04:52:32;4.95;;;2.20;;
25479;SDS011;13393;49.378;8.686;2023-11-21T04:54:59;4.13;;;1.92;;
25479;SDS011;13393;49.378;8.686;2023-11-21T04:57:28;5.90;;;2.15;;
25479;SDS011;13393;49.378;8.686;2023-11-21T04:59:55;5.05;;;2.20;;
25479;SDS011;13393;49.378;8.686;2023-11-21T05:02:22;5.80;;;2.88;;
25479;SDS011;13393;49.378;8.686;2023-11-21T05:04:49;4.78;;;2.15;;
25479;SDS011;13393;49.378;8.686;2023-11-21T05:07:15;6.35;;;2.42;;
25479;SDS011;13393;49.378;8.686;2023-11-21T05:09:43;5.05;;;2.10;;
25479;SDS011;13393;49.378;8.686;2023-11-21T05:12:11;5.35;;;2.92;;
25479;SDS011;13393;49.378;8.686;2023-11-21T05:14:41;3.78;;;2.28;;
25479;SDS011;13393;49.378;8.686;2023-11-21T05:17:08;6.05;;;2.53;;
25479;SDS011;13393;49.378;8.686;2023-11-21T05:19:36;6.35;;;2.92;;
25479;SDS011;13393;49.378;8.686;2023-11-21T05:22:03;4.28;;;2.40;;
25479;SDS011;13393;49.378;8.686;2023-11-21T05:24:30;6.90;;;3.00;;
25479;SDS011;13393;49.378;8.686;2023-11-21T05:26:57;5.05;;;2.75;;
25479;SDS011;13393;49.378;8.686;2023-11-21T05:29:24;3.53;;;2.40;;
25479;SDS011;13393;49.378;8.686;2023-11-21T05:31:52;4.20;;;2.60;;
25479;SDS011;13393;49.378;8.686;2023-11-21T05:34:19;6.05;;;2.40;;
25479;SDS011;13393;49.378;8.686;2023-11-21T05:36:45;5.07;;;2.40;;
25479;SDS011;13393;49.378;8.686;2023-11-21T05:39:13;5.35;;;2.50;;
25479;SDS011;13393;49.378;8.686;2023-11-21T05:41:42;3.90;;;2.67;;
25479;SDS011;13393;49.378;8.686;2023-11-21T05:44:08;5.55;;;2.63;;
25479;SDS011;13393;49.378;8.686;2023-11-21T05:46:35;4.85;;;2.50;;
25479;SDS011;13393;49.378;8.686;2023-11-21T05:49:03;5.93;;;2.85;;
25479;SDS011;13393;49.378;8.686;2023-11-21T05:51:29;6.40;;;2.90;;
25479;SDS011;13393;49.378;8.686;2023-11-21T05:53:55;5.50;;;2.83;;
25479;SDS011;13393;49.378;8.686;2023-11-21T05:56:22;4.35;;;2.58;;
25479;SDS011;13393;49.378;8.686;2023-11-21T05:58:48;4.70;;;2.78;;
25479;SDS011;13393;49.378;8.686;2023-11-21T06:01:16;4.80;;;2.70;;
25479;SDS011;13393;49.378;8.686;2023-11-21T06:03:42;8.25;;;2.78;;
25479;SDS011;13393;49.378;8.686;2023-11-21T06:06:10;4.45;;;2.60;;
25479;SDS011;13393;49.378;8.686;2023-11-21T06:08:37;6.47;;;2.60;;
25479;SDS011;13393;49.378;8.686;2023-11-21T06:11:04;5.13;;;2.72;;
25479;SDS011;13393;49.378;8.686;2023-11-21T06:13:30;4.88;;;3.05;;
25479;SDS011;13393;49.378;8.686;2023-11-21T06:15:57;4.63;;;2.92;;
25479;SDS011;13393;49.378;8.686;2023-11-21T06:18:23;5.32;;;2.80;;
25479;SDS011;13393;49.378;8.686;2023-11-21T06:20:49;3.47;;;2.95;;
25479;SDS011;13393;49.378;8.686;2023-11-21T06:23:19;4.85;;;2.88;;
25479;SDS011;13393;49.378;8.686;2023-11-21T06:25:46;6.78;;;3.85;;
25479;SDS011;13393;49.378;8.686;2023-11-21T06:28:13;10.57;;;4.13;;
25479;SDS011;13393;49.378;8.686;2023-11-21T06:30:42;5.25;;;3.70;;
25479;SDS011;13393;49.378;8.686;2023-11-21T06:33:09;5.10;;;3.15;;
25479;SDS011;13393;49.378;8.686;2023-11-21T06:35:35;6.25;;;3.63;;
25479;SDS011;13393;49.378;8.686;2023-11-21T06:38:01;4.38;;;3.17;;
25479;SDS011;13393;49.378;8.686;2023-11-21T06:40:32;6.50;;;3.38;;
25479;SDS011;13393;49.378;8.686;2023-11-21T06:42:58;7.55;;;4.55;;
25479;SDS011;13393;49.378;8.686;2023-11-21T06:45:25;9.45;;;4.70;;
25479;SDS011;13393;49.378;8.686;2023-11-21T06:47:52;6.45;;;4.60;;
25479;SDS011;13393;49.378;8.686;2023-11-21T06:50:18;5.63;;;4.82;;
25479;SDS011;13393;49.378;8.686;2023-11-21T06:52:46;7.43;;;4.70;;
25479;SDS011;13393;49.378;8.686;2023-11-21T06:55:12;6.25;;;5.03;;
25479;SDS011;13393;49.378;8.686;2023-11-21T06:57:40;5.63;;;4.20;;
25479;SDS011;13393;49.378;8.686;2023-11-21T07:00:07;5.68;;;4.20;;
25479;SDS011;13393;49.378;8.686;2023-11-21T07:02:34;7.10;;;5.43;;
25479;SDS011;13393;49.378;8.686;2023-11-21T07:05:02;10.45;;;6.30;;
25479;SDS011;13393;49.378;8.686;2023-11-21T07:07:29;8.38;;;6.03;;
25479;SDS011;13393;49.378;8.686;2023-11-21T07:09:55;7.03;;;5.43;;
25479;SDS011;13393;49.378;8.686;2023-11-21T07:12:22;6.85;;;5.70;;
25479;SDS011;13393;49.378;8.686;2023-11-21T07:14:52;6.05;;;4.72;;
25479;SDS011;13393;49.378;8.686;2023-11-21T07:17:19;10.45;;;5.40;;
25479;SDS011;13393;49.378;8.686;2023-11-21T07:19:45;8.63;;;5.32;;
25479;SDS011;13393;49.378;8.686;2023-11-21T07:22:12;5.70;;;4.93;;
25479;SDS011;13393;49.378;8.686;2023-11-21T07:24:39;8.52;;;5.97;;
25479;SDS011;13393;49.378;8.686;2023-11-21T07:27:05;9.40;;;4.93;;
25479;SDS011;13393;49.378;8.686;2023-11-21T07:29:32;10.80;;;5.18;;
25479;SDS011;13393;49.378;8.686;2023-11-21T07:32:00;7.53;;;6.15;;
25479;SDS011;13393;49.378;8.686;2023-11-21T07:34:27;8.95;;;5.20;;
25479;SDS011;13393;49.378;8.686;2023-11-21T07:36:54;6.30;;;5.30;;
25479;SDS011;13393;49.378;8.686;2023-11-21T07:39:20;7.30;;;6.18;;
25479;SDS011;13393;49.378;8.686;2023-11-21T07:41:46;9.27;;;5.90;;
25479;SDS011;13393;49.378;8.686;2023-11-21T07:44:15;6.28;;;4.65;;
25479;SDS011;13393;49.378;8.686;2023-11-21T07:46:42;12.10;;;5.47;;
25479;SDS011;13393;49.378;8.686;2023-11-21T07:49:12;10.63;;;6.20;;
25479;SDS011;13393;49.378;8.686;2023-11-21T07:51:40;8.55;;;6.20;;
25479;SDS011;13393;49.378;8.686;2023-11-21T07:54:07;7.97;;;6.82;;
25479;SDS011;13393;49.378;8.686;2023-11-21T07:56:33;8.85;;;7.93;;
25479;SDS011;13393;49.378;8.686;2023-11-21T07:59:00;9.48;;;7.63;;
25479;SDS011;13393;49.378;8.686;2023-11-21T08:01:26;12.50;;;9.15;;
25479;SDS011;13393;49.378;8.686;2023-11-21T08:03:53;10.10;;;8.80;;
25479;SDS011;13393;49.378;8.686;2023-11-21T08:06:24;12.32;;;9.40;;
25479;SDS011;13393;49.378;8.686;2023-11-21T08:08:51;11.32;;;8.93;;
25479;SDS011;13393;49.378;8.686;2023-11-21T08:11:17;13.50;;;9.80;;
25479;SDS011;13393;49.378;8.686;2023-11-21T08:13:44;10.25;;;9.13;;
25479;SDS011;13393;49.378;8.686;2023-11-21T08:16:11;12.00;;;8.90;;
25479;SDS011;13393;49.378;8.686;2023-11-21T08:18:37;10.55;;;9.32;;
25479;SDS011;13393;49.378;8.686;2023-11-21T08:21:05;15.10;;;9.80;;
25479;SDS011;13393;49.378;8.686;2023-11-21T08:23:34;13.75;;;10.13;;
25479;SDS011;13393;49.378;8.686;2023-11-21T08:26:02;12.55;;;10.43;;
25479;SDS011;13393;49.378;8.686;2023-11-21T08:28:29;15.15;;;10.40;;
25479;SDS011;13393;49.378;8.686;2023-11-21T08:30:57;14.35;;;10.73;;
25479;SDS011;13393;49.378;8.686;2023-11-21T08:33:24;12.65;;;10.52;;
25479;SDS011;13393;49.378;8.686;2023-11-21T08:35:50;13.35;;;9.88;;
25479;SDS011;13393;49.378;8.686;2023-11-21T08:38:17;12.27;;;9.77;;
25479;SDS011;13393;49.378;8.686;2023-11-21T08:40:46;15.70;;;10.38;;
25479;SDS011;13393;49.378;8.686;2023-11-21T08:43:13;11.18;;;9.88;;
25479;SDS011;13393;49.378;8.686;2023-11-21T08:45:41;14.20;;;10.43;;
25479;SDS011;13393;49.378;8.686;2023-11-21T08:48:07;15.80;;;9.98;;
25479;SDS011;13393;49.378;8.686;2023-11-21T08:50:34;12.65;;;10.30;;
25479;SDS011;13393;49.378;8.686;2023-11-21T08:53:00;13.07;;;10.30;;
25479;SDS011;13393;49.378;8.686;2023-11-21T08:55:27;11.15;;;10.00;;
25479;SDS011;13393;49.378;8.686;2023-11-21T08:57:55;12.80;;;10.00;;
25479;SDS011;13393;49.378;8.686;2023-11-21T09:00:24;11.02;;;9.18;;
25479;SDS011;13393;49.378;8.686;2023-11-21T09:02:51;12.20;;;9.30;;
25479;SDS011;13393;49.378;8.686;2023-11-21T09:05:17;10.02;;;9.02;;
25479;SDS011;13393;49.378;8.686;2023-11-21T09:07:45;9.13;;;8.27;;
25479;SDS011;13393;49.378;8.686;2023-11-21T09:10:13;9.60;;;8.25;;
25479;SDS011;13393;49.378;8.686;2023-11-21T09:12:41;8.98;;;7.95;;
25479;SDS011;13393;49.378;8.686;2023-11-21T09:15:10;7.85;;;7.07;;
25479;SDS011;13393;49.378;8.686;2023-11-21T09:17:36;10.52;;;7.03;;
25479;SDS011;13393;49.378;8.686;2023-11-21T09:20:04;8.68;;;7.60;;
25479;SDS011;13393;49.378;8.686;2023-11-21T09:22:31;7.45;;;6.75;;
25479;SDS011;13393;49.378;8.686;2023-11-21T09:24:57;6.97;;;6.28;;
25479;SDS011;13393;49.378;8.686;2023-11-21T09:27:25;7.18;;;6.47;;
25479;SDS011;13393;49.378;8.686;2023-11-21T09:29:52;11.43;;;6.55;;
25479;SDS011;13393;49.378;8.686;2023-11-21T09:32:20;7.63;;;6.93;;
25479;SDS011;13393;49.378;8.686;2023-11-21T09:34:47;8.23;;;7.35;;
25479;SDS011;13393;49.378;8.686;2023-11-21T09:37:14;8.88;;;5.95;;
25479;SDS011;13393;49.378;8.686;2023-11-21T09:39:40;7.28;;;6.38;;
25479;SDS011;13393;49.378;8.686;2023-11-21T09:42:08;6.50;;;5.90;;
25479;SDS011;13393;49.378;8.686;2023-11-21T09:44:39;10.35;;;6.80;;
25479;SDS011;13393;49.378;8.686;2023-11-21T09:47:08;7.57;;;6.72;;
25479;SDS011;13393;49.378;8.686;2023-11-21T09:49:37;7.25;;;6.55;;
25479;SDS011;13393;49.378;8.686;2023-11-21T09:52:05;6.95;;;6.00;;
25479;SDS011;13393;49.378;8.686;2023-11-21T09:54:34;7.05;;;5.22;;
25479;SDS011;13393;49.378;8.686;2023-11-21T09:57:01;5.07;;;4.63;;
25479;SDS011;13393;49.378;8.686;2023-11-21T09:59:28;6.15;;;5.28;;
25479;SDS011;13393;49.378;8.686;2023-11-21T10:01:58;4.63;;;4.22;;
25479;SDS011;13393;49.378;8.686;2023-11-21T10:04:25;5.13;;;4.20;;
25479;SDS011;13393;49.378;8.686;2023-11-21T10:06:53;5.78;;;4.03;;
25479;SDS011;13393;49.378;8.686;2023-11-21T10:09:20;4.40;;;3.53;;
25479;SDS011;13393;49.378;8.686;2023-11-21T10:11:47;3.80;;;3.47;;
25479;SDS011;13393;49.378;8.686;2023-11-21T10:14:15;3.53;;;3.20;;
25479;SDS011;13393;49.378;8.686;2023-11-21T10:16:45;4.55;;;3.40;;
25479;SDS011;13393;49.378;8.686;2023-11-21T10:19:13;4.10;;;3.13;;
25479;SDS011;13393;49.378;8.686;2023-11-21T10:21:41;3.85;;;2.58;;
25479;SDS011;13393;49.378;8.686;2023-11-21T10:24:09;3.85;;;2.58;;
25479;SDS011;13393;49.378;8.686;2023-11-21T10:26:37;2.60;;;2.40;;
25479;SDS011;13393;49.378;8.686;2023-11-21T10:29:04;2.92;;;2.70;;
25479;SDS011;13393;49.378;8.686;2023-11-21T10:31:31;4.95;;;2.60;;
25479;SDS011;13393;49.378;8.686;2023-11-21T10:34:10;3.75;;;2.40;;
25479;SDS011;13393;49.378;8.686;2023-11-21T10:36:37;4.38;;;2.85;;
25479;SDS011;13393;49.378;8.686;2023-11-21T10:39:03;2.97;;;2.72;;
25479;SDS011;13393;49.378;8.686;2023-11-21T10:41:31;4.78;;;2.75;;
25479;SDS011;13393;49.378;8.686;2023-11-21T10:43:58;5.68;;;3.33;;
25479;SDS011;13393;49.378;8.686;2023-11-21T10:46:24;3.80;;;3.50;;
25479;SDS011;13393;49.378;8.686;2023-11-21T10:48:52;3.90;;;3.60;;
25479;SDS011;13393;49.378;8.686;2023-11-21T10:51:20;4.65;;;3.50;;
25479;SDS011;13393;49.378;8.686;2023-11-21T10:53:46;6.97;;;3.60;;
25479;SDS011;13393;49.378;8.686;2023-11-21T10:56:15;4.63;;;3.90;;
25479;SDS011;13393;49.378;8.686;2023-11-21T10:58:47;4.88;;;3.55;;
25479;SDS011;13393;49.378;8.686;2023-11-21T11:01:19;5.20;;;4.32;;
25479;SDS011;13393;49.378;8.686;2023-11-21T11:03:47;7.97;;;4.15;;
25479;SDS011;13393;49.378;8.686;2023-11-21T11:06:14;5.22;;;4.55;;
25479;SDS011;13393;49.378;8.686;2023-11-21T11:08:42;5.72;;;4.70;;
25479;SDS011;13393;49.378;8.686;2023-11-21T11:11:10;6.85;;;5.40;;
25479;SDS011;13393;49.378;8.686;2023-11-21T11:13:39;5.97;;;5.10;;
25479;SDS011;13393;49.378;8.686;2023-11-21T11:16:10;6.32;;;5.50;;
25479;SDS011;13393;49.378;8.686;2023-11-21T11:18:42;6.80;;;5.90;;
25479;SDS011;13393;49.378;8.686;2023-11-21T11:21:11;7.45;;;6.00;;
25479;SDS011;13393;49.378;8.686;2023-11-21T11:23:46;6.30;;;5.60;;
25479;SDS011;13393;49.378;8.686;2023-11-21T11:26:19;6.30;;;5.63;;
25479;SDS011;13393;49.378;8.686;2023-11-21T11:28:52;6.32;;;5.72;;
25479;SDS011;13393;49.378;8.686;2023-11-21T11:31:27;6.85;;;5.60;;
25479;SDS011;13393;49.378;8.686;2023-11-21T11:33:58;7.65;;;5.85;;
25479;SDS011;13393;49.378;8.686;2023-11-21T11:36:27;5.93;;;5.32;;
25479;SDS011;13393;49.378;8.686;2023-11-21T11:38:55;5.90;;;5.30;;
25479;SDS011;13393;49.378;8.686;2023-11-21T11:41:25;5.63;;;5.10;;
25479;SDS011;13393;49.378;8.686;2023-11-21T11:43:52;5.95;;;4.95;;
25479;SDS011;13393;49.378;8.686;2023-11-21T11:46:19;5.65;;;5.13;;
25479;SDS011;13393;49.378;8.686;2023-11-21T11:48:52;5.55;;;5.03;;
25479;SDS011;13393;49.378;8.686;2023-11-21T11:51:31;6.28;;;4.75;;
25479;SDS011;13393;49.378;8.686;2023-11-21T11:53:58;5.38;;;4.47;;
25479;SDS011;13393;49.378;8.686;2023-11-21T11:56:25;6.25;;;5.05;;
25479;SDS011;13393;49.378;8.686;2023-11-21T11:58:55;5.97;;;5.28;;
25479;SDS011;13393;49.378;8.686;2023-11-21T12:01:28;5.82;;;5.13;;
25479;SDS011;13393;49.378;8.686;2023-11-21T12:06:43;6.63;;;5.05;;
25479;SDS011;13393;49.378;8.686;2023-11-21T12:09:10;5.40;;;4.65;;
25479;SDS011;13393;49.378;8.686;2023-11-21T12:11:43;6.22;;;5.25;;
25479;SDS011;13393;49.378;8.686;2023-11-21T12:14:09;7.38;;;4.63;;
25479;SDS011;13393;49.378;8.686;2023-11-21T12:16:36;5.32;;;4.65;;
25479;SDS011;13393;49.378;8.686;2023-11-21T12:19:02;7.20;;;4.95;;
25479;SDS011;13393;49.378;8.686;2023-11-21T12:21:29;4.68;;;4.05;;
25479;SDS011;13393;49.378;8.686;2023-11-21T12:23:59;5.13;;;4.63;;
25479;SDS011;13393;49.378;8.686;2023-11-21T12:26:25;7.93;;;4.80;;
25479;SDS011;13393;49.378;8.686;2023-11-21T12:28:52;7.78;;;5.50;;
25479;SDS011;13393;49.378;8.686;2023-11-21T12:31:20;6.68;;;4.68;;
25479;SDS011;13393;49.378;8.686;2023-11-21T12:33:47;7.28;;;4.65;;
25479;SDS011;13393;49.378;8.686;2023-11-21T12:36:14;5.45;;;4.47;;
25479;SDS011;13393;49.378;8.686;2023-11-21T12:38:48;8.00;;;4.38;;
25479;SDS011;13393;49.378;8.686;2023-11-21T12:41:17;4.60;;;4.20;;
25479;SDS011;13393;49.378;8.686;2023-11-21T12:43:43;3.55;;;3.25;;
25479;SDS011;13393;49.378;8.686;2023-11-21T12:46:10;4.65;;;3.30;;
25479;SDS011;13393;49.378;8.686;2023-11-21T12:48:38;5.25;;;3.28;;
25479;SDS011;13393;49.378;8.686;2023-11-21T12:51:09;4.75;;;3.03;;
25479;SDS011;13393;49.378;8.686;2023-11-21T12:53:37;3.50;;;3.20;;
25479;SDS011;13393;49.378;8.686;2023-11-21T12:56:06;3.60;;;2.80;;
25479;SDS011;13393;49.378;8.686;2023-11-21T12:58:35;4.63;;;2.90;;
25479;SDS011;13393;49.378;8.686;2023-11-21T13:01:04;3.15;;;2.60;;
25479;SDS011;13393;49.378;8.686;2023-11-21T13:03:37;3.50;;;1.70;;
25479;SDS011;13393;49.378;8.686;2023-11-21T13:06:03;1.85;;;1.60;;
25479;SDS011;13393;49.378;8.686;2023-11-21T13:08:32;1.92;;;1.83;;
25479;SDS011;13393;49.378;8.686;2023-11-21T13:10:59;3.25;;;1.98;;
25479;SDS011;13393;49.378;8.686;2023-11-21T13:13:27;3.00;;;2.45;;
25479;SDS011;13393;49.378;8.686;2023-11-21T13:15:56;2.85;;;2.35;;
25479;SDS011;13393;49.378;8.686;2023-11-21T13:18:22;2.55;;;2.35;;
25479;SDS011;13393;49.378;8.686;2023-11-21T13:20:50;4.47;;;2.75;;
25479;SDS011;13393;49.378;8.686;2023-11-21T13:23:16;3.17;;;2.90;;
25479;SDS011;13393;49.378;8.686;2023-11-21T13:25:43;4.63;;;3.10;;
25479;SDS011;13393;49.378;8.686;2023-11-21T13:28:11;4.32;;;3.80;;
25479;SDS011;13393;49.378;8.686;2023-11-21T13:30:40;5.05;;;3.15;;
25479;SDS011;13393;49.378;8.686;2023-11-21T13:33:08;4.20;;;3.75;;
25479;SDS011;13393;49.378;8.686;2023-11-21T13:35:42;9.82;;;3.65;;
25479;SDS011;13393;49.378;8.686;2023-11-21T13:38:13;3.20;;;2.60;;
25479;SDS011;13393;49.378;8.686;2023-11-21T13:40:42;5.07;;;2.10;;
25479;SDS011;13393;49.378;8.686;2023-11-21T13:43:13;2.28;;;2.00;;
25479;SDS011;13393;49.378;8.686;2023-11-21T13:45:40;3.40;;;1.70;;
25479;SDS011;13393;49.378;8.686;2023-11-21T13:48:09;3.80;;;1.90;;
25479;SDS011;13393;49.378;8.686;2023-11-21T13:50:39;1.67;;;1.35;;
25479;SDS011;13393;49.378;8.686;2023-11-21T13:53:13;3.17;;;1.40;;
25479;SDS011;13393;49.378;8.686;2023-11-21T13:55:47;4.85;;;1.42;;
25479;SDS011;13393;49.378;8.686;2023-11-21T13:58:15;2.45;;;1.20;;
25479;SDS011;13393;49.378;8.686;2023-11-21T14:00:45;2.33;;;1.23;;
25479;SDS011;13393;49.378;8.686;2023-11-21T14:03:20;1.20;;;1.10;;
25479;SDS011;13393;49.378;8.686;2023-11-21T14:05:48;3.05;;;1.38;;
25479;SDS011;13393;49.378;8.686;2023-11-21T14:08:16;2.60;;;1.15;;
25479;SDS011;13393;49.378;8.686;2023-11-21T14:10:45;1.75;;;1.25;;
25479;SDS011;13393;49.378;8.686;2023-11-21T14:13:15;4.43;;;1.40;;
25479;SDS011;13393;49.378;8.686;2023-11-21T14:15:42;2.47;;;1.75;;
25479;SDS011;13393;49.378;8.686;2023-11-21T14:18:11;3.10;;;2.00;;
25479;SDS011;13393;49.378;8.686;2023-11-21T14:20:43;4.53;;;2.08;;
25479;SDS011;13393;49.378;8.686;2023-11-21T14:23:10;3.80;;;2.00;;
25479;SDS011;13393;49.378;8.686;2023-11-21T14:25:37;5.60;;;2.15;;
25479;SDS011;13393;49.378;8.686;2023-11-21T14:28:04;3.78;;;2.00;;
25479;SDS011;13393;49.378;8.686;2023-11-21T14:30:32;3.63;;;1.90;;
25479;SDS011;13393;49.378;8.686;2023-11-21T14:33:01;3.22;;;1.90;;
25479;SDS011;13393;49.378;8.686;2023-11-21T14:35:27;3.63;;;1.80;;
25479;SDS011;13393;49.378;8.686;2023-11-21T14:37:59;5.95;;;2.78;;
25479;SDS011;13393;49.378;8.686;2023-11-21T14:40:27;6.63;;;2.80;;
25479;SDS011;13393;49.378;8.686;2023-11-21T14:42:58;7.15;;;3.90;;
25479;SDS011;13393;49.378;8.686;2023-11-21T14:45:24;9.38;;;5.20;;
25479;SDS011;13393;49.378;8.686;2023-11-21T14:47:51;14.45;;;7.70;;
25479;SDS011;13393;49.378;8.686;2023-11-21T14:50:25;6.18;;;3.95;;